Time;durP1;ratioP1;P1;durP2;ratioP2;P2;SDS_P1;SDS_P2;PMS_P1;PMS_P2;Temp;Humidity;BMP_temperature;BMP_pressure;BME280_temperature;BME280_humidity;BME280_pressure;Samples;Min_cycle;Max_cycle;Signal;HPM_P1;HPM_P2
2022/10/27 00:01:51;;;;;;;4.10;2.75;;;;;;;11.09;100.00;101948.75;6223085;28;20050;-75
2022/10/27 00:04:54;;;;;;;4.20;2.67;;;;;;;11.09;100.00;101947.91;6222721;28;20049;-75
2022/10/27 00:07:56;;;;;;;5.07;2.40;;;;;;;11.10;100.00;101946.97;6223162;28;20076;-74
2022/10/27 00:10:59;;;;;;;5.85;2.65;;;;;;;11.07;100.00;101947.94;6222315;28;20077;-74
2022/10/27 00:14:00;;;;;;;3.78;2.65;;;;;;;11.08;100.00;101952.31;6222771;28;20046;-74
2022/10/27 00:17:02;;;;;;;4.03;2.47;;;;;;;11.12;100.00;101959.16;6222864;28;20046;-74
2022/10/27 00:20:06;;;;;;;3.22;2.40;;;;;;;11.14;100.00;101952.06;6222708;28;20526;-74
2022/10/27 00:23:07;;;;;;;3.17;2.08;;;;;;;11.16;100.00;101955.50;6222629;28;20057;-74
2022/10/27 00:26:11;;;;;;;4.78;2.33;;;;;;;11.18;100.00;101958.94;6222650;28;20049;-74
2022/10/27 00:29:13;;;;;;;3.17;2.08;;;;;;;11.25;100.00;101956.06;6222627;28;20061;-75
2022/10/27 00:32:14;;;;;;;3.25;2.10;;;;;;;11.28;100.00;101959.47;6222085;28;20050;-74
2022/10/27 00:35:17;;;;;;;4.85;2.45;;;;;;;11.31;100.00;101962.00;6222248;28;20049;-74
2022/10/27 00:38:18;;;;;;;4.63;2.28;;;;;;;11.32;100.00;101963.69;6222363;28;20050;-74
2022/10/27 00:41:26;;;;;;;5.20;2.20;;;;;;;11.37;100.00;101967.00;6222152;28;20524;-75
2022/10/27 00:44:36;;;;;;;3.25;2.28;;;;;;;11.40;100.00;101972.19;6222015;28;20068;-74
2022/10/27 00:47:38;;;;;;;7.05;2.10;;;;;;;11.46;100.00;101980.75;6222543;28;20061;-74
2022/10/27 00:50:41;;;;;;;4.50;2.00;;;;;;;11.51;100.00;101977.03;6221762;28;20042;-74
2022/10/27 00:53:43;;;;;;;12.40;2.65;;;;;;;11.55;100.00;101972.50;6221939;28;20122;-74
2022/10/27 00:56:47;;;;;;;6.43;2.30;;;;;;;11.56;100.00;101977.72;6222195;28;20557;-74
2022/10/27 00:59:49;;;;;;;3.97;2.33;;;;;;;11.59;100.00;101980.25;6221812;28;20556;-75
2022/10/27 01:02:51;;;;;;;2.70;1.80;;;;;;;11.63;100.00;101978.34;6222168;28;20061;-74
2022/10/27 01:05:56;;;;;;;6.78;2.33;;;;;;;11.65;100.00;101981.78;6222058;28;20054;-74
2022/10/27 01:08:58;;;;;;;4.30;2.42;;;;;;;11.64;100.00;101978.28;6222585;28;20069;-74
2022/10/27 01:12:00;;;;;;;4.30;2.17;;;;;;;11.64;100.00;101987.97;6222024;28;20066;-74
2022/10/27 01:15:02;;;;;;;9.10;2.08;;;;;;;11.59;100.00;101987.28;6244963;28;20513;-74
2022/10/27 01:18:13;;;;;;;3.67;2.00;;;;;;;11.57;100.00;101997.00;6246691;28;20057;-75
2022/10/27 01:21:50;;;;;;;3.75;1.92;;;;;;;11.50;100.00;101991.13;6247002;28;20049;-74
2022/10/27 01:25:05;;;;;;;3.08;2.25;;;;;;;11.47;100.00;102001.75;6251380;28;20489;-74
2022/10/27 01:28:25;;;;;;;4.88;2.35;;;;;;;11.43;100.00;102002.78;6251527;28;20060;-74
2022/10/27 01:31:30;;;;;;;4.97;2.65;;;;;;;11.39;100.00;102006.44;6251068;28;20053;-74
2022/10/27 01:34:38;;;;;;;2.55;1.88;;;;;;;11.38;100.00;102007.34;6251253;28;20049;-75
2022/10/27 01:37:46;;;;;;;3.03;1.95;;;;;;;11.35;100.00;102016.19;6251327;28;20057;-74
2022/10/27 01:40:56;;;;;;;4.15;2.15;;;;;;;11.34;100.00;102011.88;6250722;28;20053;-74
2022/10/27 01:44:06;;;;;;;4.03;2.10;;;;;;;11.32;100.00;102010.22;6250775;28;20061;-74
2022/10/27 01:47:10;;;;;;;4.45;2.10;;;;;;;11.28;100.00;102011.25;6250863;28;20052;-74
2022/10/27 01:50:11;;;;;;;3.63;1.75;;;;;;;11.29;100.00;102013.81;6250739;28;20052;-74
2022/10/27 01:53:14;;;;;;;3.65;1.92;;;;;;;11.28;100.00;102013.88;6250647;28;20049;-74
2022/10/27 01:56:40;;;;;;;3.55;1.90;;;;;;;11.27;100.00;102014.78;6250635;28;20050;-74
2022/10/27 01:59:54;;;;;;;4.25;2.35;;;;;;;11.27;100.00;102025.31;6250267;28;20065;-74
2022/10/27 02:03:03;;;;;;;3.03;1.95;;;;;;;11.25;100.00;102016.59;6250781;28;20060;-74
2022/10/27 02:06:10;;;;;;;3.22;2.03;;;;;;;11.27;100.00;102022.69;6250138;28;20052;-74
2022/10/27 02:09:16;;;;;;;6.13;2.05;;;;;;;11.27;100.00;102020.06;6250888;28;20528;-74
2022/10/27 02:12:25;;;;;;;3.17;2.10;;;;;;;11.24;100.00;102028.03;6249868;28;20049;-74
2022/10/27 02:15:32;;;;;;;2.80;2.03;;;;;;;11.21;100.00;102038.66;6250132;28;20049;-74
2022/10/27 02:18:38;;;;;;;3.33;2.10;;;;;;;11.21;100.00;102043.94;6250543;28;20050;-74
2022/10/27 02:21:44;;;;;;;3.70;2.10;;;;;;;11.21;100.00;102046.56;6249755;28;20056;-74
2022/10/27 02:24:46;;;;;;;3.42;2.20;;;;;;;11.16;100.00;102042.31;6249733;28;20049;-74
2022/10/27 02:27:53;;;;;;;2.35;1.48;;;;;;;11.15;100.00;102047.66;6250107;28;20061;-74
2022/10/27 02:30:58;;;;;;;3.95;1.73;;;;;;;11.16;100.00;102054.63;6249527;28;20041;-74
2022/10/27 02:34:01;;;;;;;5.40;2.03;;;;;;;11.13;100.00;102055.59;6249523;28;20049;-74
2022/10/27 02:37:04;;;;;;;2.65;1.80;;;;;;;11.14;100.00;102052.06;6249854;28;20509;-74
2022/10/27 02:40:07;;;;;;;4.35;1.88;;;;;;;11.11;100.00;102059.19;6249378;28;20046;-74
2022/10/27 02:43:08;;;;;;;1.90;1.40;;;;;;;11.11;100.00;102053.91;6247901;28;20045;-74
2022/10/27 02:46:09;;;;;;;5.35;2.30;;;;;;;11.08;100.00;102056.66;6249143;28;20402;-74
2022/10/27 02:49:12;;;;;;;7.78;2.50;;;;;;;11.06;100.00;102056.72;6249443;28;20060;-74
2022/10/27 02:52:14;;;;;;;3.20;1.80;;;;;;;11.02;100.00;102057.72;6249182;28;20046;-74
2022/10/27 02:55:15;;;;;;;5.50;2.40;;;;;;;10.99;100.00;102054.34;6249006;28;20050;-74
2022/10/27 02:58:17;;;;;;;2.80;2.03;;;;;;;10.96;100.00;102050.06;6249664;28;20080;-74
2022/10/27 03:01:18;;;;;;;4.72;2.13;;;;;;;10.96;100.00;102046.56;6248836;28;20049;-74
2022/10/27 03:04:21;;;;;;;3.53;2.10;;;;;;;10.92;100.00;102059.81;6249166;28;20049;-74
2022/10/27 03:10:27;;;;;;;7.28;2.03;;;;;;;10.83;100.00;102062.75;6247391;28;20087;-79
2022/10/27 03:13:29;;;;;;;3.88;1.50;;;;;;;10.83;100.00;102067.16;6237220;28;20045;-79
2022/10/27 03:16:30;;;;;;;3.08;2.00;;;;;;;10.81;100.00;102055.81;6230262;28;20049;-79
2022/10/27 03:19:33;;;;;;;3.72;1.85;;;;;;;10.80;100.00;102056.72;6250771;28;20050;-79
2022/10/27 03:22:36;;;;;;;4.75;1.88;;;;;;;10.78;100.00;102069.94;6250318;28;20053;-79
2022/10/27 03:25:42;;;;;;;5.28;2.10;;;;;;;10.75;100.00;102075.28;6250853;28;20045;-79
2022/10/27 03:28:43;;;;;;;2.75;1.88;;;;;;;10.71;100.00;102070.19;6250596;28;20053;-80
2022/10/27 03:31:45;;;;;;;2.92;1.60;;;;;;;10.68;100.00;102070.28;6250982;28;20060;-79
2022/10/27 03:34:48;;;;;;;5.97;2.58;;;;;;;10.63;100.00;102084.44;6250712;28;20052;-79
2022/10/27 03:37:55;;;;;;;3.38;2.10;;;;;;;10.64;100.00;102077.41;6250977;28;20060;-79
2022/10/27 03:40:56;;;;;;;3.35;2.08;;;;;;;10.63;100.00;102078.34;6250210;28;20057;-78
2022/10/27 03:43:57;;;;;;;4.03;2.28;;;;;;;10.60;100.00;102070.53;6248855;28;20056;-81
2022/10/27 03:46:59;;;;;;;4.70;1.58;;;;;;;10.58;100.00;102070.59;6249756;28;20050;-79
2022/10/27 03:50:01;;;;;;;3.40;2.38;;;;;;;10.56;100.00;102082.91;6250589;28;20050;-79
2022/10/27 03:53:04;;;;;;;2.88;2.00;;;;;;;10.54;100.00;102071.59;6250371;28;20049;-79
2022/10/27 03:56:05;;;;;;;5.70;2.10;;;;;;;10.50;100.00;102074.38;6250022;28;20064;-79
2022/10/27 03:59:08;;;;;;;3.20;1.80;;;;;;;10.49;100.00;102073.53;6250467;28;20045;-81
2022/10/27 04:02:09;;;;;;;4.50;2.08;;;;;;;10.48;100.00;102063.88;6248922;28;20407;-81
2022/10/27 04:05:12;;;;;;;2.08;1.70;;;;;;;10.48;100.00;102057.78;6249193;28;20054;-80
2022/10/27 04:08:13;;;;;;;6.40;1.88;;;;;;;10.49;100.00;102063.00;6249901;28;20045;-80
2022/10/27 04:11:15;;;;;;;3.40;2.13;;;;;;;10.51;100.00;102068.19;6249261;28;20041;-81
2022/10/27 04:14:16;;;;;;;3.00;1.75;;;;;;;10.54;100.00;102060.22;6249072;28;20049;-80
2022/10/27 04:17:18;;;;;;;3.53;2.05;;;;;;;10.57;100.00;102057.47;6249432;28;20079;-81
2022/10/27 04:20:21;;;;;;;3.17;1.77;;;;;;;10.61;100.00;102056.47;6248571;28;20045;-81
2022/10/27 04:23:22;;;;;;;4.10;1.98;;;;;;;10.64;100.00;102056.38;6249256;28;20053;-80
2022/10/27 04:26:23;;;;;;;3.30;1.80;;;;;;;10.65;100.00;102050.22;6249085;28;20501;-79
2022/10/27 04:29:25;;;;;;;3.38;2.13;;;;;;;10.68;100.00;102058.00;6248712;28;20050;-81
2022/10/27 04:32:26;;;;;;;3.22;1.75;;;;;;;10.73;100.00;102042.09;6249068;28;20045;-80
2022/10/27 04:35:29;;;;;;;4.85;2.38;;;;;;;10.76;100.00;102052.47;6250432;28;20053;-80
2022/10/27 04:38:31;;;;;;;6.68;2.72;;;;;;;10.84;100.00;102058.34;6249590;28;20048;-80
2022/10/27 04:41:32;;;;;;;3.55;1.90;;;;;;;10.88;100.00;102062.59;6248664;28;20041;-80
2022/10/27 04:44:34;;;;;;;5.07;2.15;;;;;;;10.91;100.00;102068.63;6249381;28;20041;-79
2022/10/27 04:47:35;;;;;;;3.40;2.17;;;;;;;10.93;100.00;102060.66;6248446;28;20053;-80
2022/10/27 04:50:38;;;;;;;3.55;1.77;;;;;;;10.97;100.00;102075.44;6247858;28;20382;-79
2022/10/27 04:53:39;;;;;;;4.18;2.33;;;;;;;10.95;100.00;102069.38;6250178;28;20055;-80
2022/10/27 04:56:41;;;;;;;2.72;2.25;;;;;;;10.94;100.00;102072.91;6248335;28;20060;-80
2022/10/27 04:59:42;;;;;;;3.15;1.98;;;;;;;10.90;100.00;102068.66;6247707;28;20049;-80
2022/10/27 05:02:43;;;;;;;2.13;1.70;;;;;;;10.88;100.00;102075.75;6248544;28;20049;-79
2022/10/27 05:05:46;;;;;;;5.70;2.00;;;;;;;10.86;100.00;102065.28;6248347;28;20053;-80
2022/10/27 05:08:48;;;;;;;2.53;1.80;;;;;;;10.84;100.00;102058.34;6248185;28;20053;-80
2022/10/27 05:11:49;;;;;;;2.78;1.63;;;;;;;10.82;100.00;102062.81;6248293;28;20048;-79
2022/10/27 05:14:50;;;;;;;3.70;1.90;;;;;;;10.81;100.00;102066.31;6248260;28;20057;-79
2022/10/27 05:17:52;;;;;;;5.63;2.20;;;;;;;10.79;100.00;102078.69;6248870;28;20046;-79
2022/10/27 05:20:56;;;;;;;2.95;1.77;;;;;;;10.79;100.00;102076.06;6248614;28;20057;-80
2022/10/27 05:23:57;;;;;;;3.40;2.00;;;;;;;10.75;100.00;102077.91;6248188;28;20045;-79
2022/10/27 05:26:58;;;;;;;2.53;1.88;;;;;;;10.73;100.00;102082.38;6248462;28;20424;-80
2022/10/27 05:30:00;;;;;;;3.65;1.90;;;;;;;10.71;100.00;102084.19;6247809;28;20057;-80
2022/10/27 05:33:01;;;;;;;3.55;1.98;;;;;;;10.70;100.00;102078.97;6248588;28;20050;-80
2022/10/27 05:36:04;;;;;;;2.53;1.95;;;;;;;10.68;100.00;102075.56;6247963;28;20049;-79
2022/10/27 05:39:06;;;;;;;5.20;1.90;;;;;;;10.64;100.00;102082.69;6249365;28;20045;-80
2022/10/27 05:42:07;;;;;;;2.28;1.75;;;;;;;10.60;100.00;102081.06;6247814;28;20636;-80
2022/10/27 05:45:09;;;;;;;7.63;1.85;;;;;;;10.60;100.00;102073.16;6248413;28;20058;-80
2022/10/27 05:48:11;;;;;;;4.65;2.22;;;;;;;10.58;100.00;102078.47;6247459;28;20053;-78
2022/10/27 05:51:13;;;;;;;2.25;1.83;;;;;;;10.57;100.00;102076.72;6248639;28;20508;-79
2022/10/27 05:54:15;;;;;;;2.42;1.80;;;;;;;10.57;100.00;102079.38;6248258;28;20045;-78
2022/10/27 05:57:16;;;;;;;3.72;2.25;;;;;;;10.56;100.00;102076.78;6249624;28;20052;-79
2022/10/27 06:00:18;;;;;;;2.75;1.83;;;;;;;10.55;100.00;102081.19;6248057;28;20489;-78
2022/10/27 06:03:21;;;;;;;3.42;2.20;;;;;;;10.56;100.00;102082.06;6249120;28;20049;-79
2022/10/27 06:06:24;;;;;;;4.07;1.90;;;;;;;10.51;100.00;102076.09;6248639;28;20050;-80
2022/10/27 06:09:26;;;;;;;4.05;1.90;;;;;;;10.48;100.00;102074.41;6252844;28;20430;-79
2022/10/27 06:12:27;;;;;;;7.15;2.20;;;;;;;10.47;100.00;102071.84;6252720;28;20052;-79
2022/10/27 06:15:29;;;;;;;2.72;1.90;;;;;;;10.48;100.00;102066.50;6253262;28;20064;-80
2022/10/27 06:18:30;;;;;;;3.63;2.17;;;;;;;10.48;100.00;102076.19;6252824;28;20056;-79
2022/10/27 06:21:33;;;;;;;4.57;2.55;;;;;;;10.45;100.00;102077.16;6252238;28;20401;-79
2022/10/27 06:24:34;;;;;;;8.75;2.63;;;;;;;10.44;100.00;102080.66;6252841;28;20060;-79
2022/10/27 06:27:35;;;;;;;3.53;2.17;;;;;;;10.41;100.00;102081.63;6246314;28;20049;-79
2022/10/27 06:30:37;;;;;;;3.92;1.80;;;;;;;10.42;100.00;102087.75;6239096;28;20041;-78
2022/10/27 06:33:38;;;;;;;3.03;1.83;;;;;;;10.40;100.00;102087.81;6239713;28;20508;-80
2022/10/27 06:36:41;;;;;;;3.78;2.10;;;;;;;10.41;100.00;102088.66;6237912;28;20045;-79
2022/10/27 06:39:42;;;;;;;3.17;2.08;;;;;;;10.41;100.00;102094.78;6239070;28;20046;-78
2022/10/27 06:42:45;;;;;;;4.15;2.10;;;;;;;10.44;100.00;102088.53;6237136;28;20509;-79
2022/10/27 06:45:48;;;;;;;3.15;2.20;;;;;;;10.41;100.00;102093.91;6236844;28;20065;-79
2022/10/27 06:48:49;;;;;;;4.00;2.20;;;;;;;10.43;100.00;102091.22;6242767;28;20053;-78
2022/10/27 06:51:53;;;;;;;4.22;2.10;;;;;;;10.44;100.00;102099.06;6252363;28;20485;-79
2022/10/27 06:54:55;;;;;;;3.33;2.42;;;;;;;10.47;100.00;102106.00;6251505;28;20049;-78
2022/10/27 06:57:56;;;;;;;4.03;2.50;;;;;;;10.49;100.00;102106.81;6248549;28;20060;-79
2022/10/27 07:00:59;;;;;;;3.50;1.98;;;;;;;10.53;100.00;102114.53;6249650;28;20049;-80
2022/10/27 07:04:00;;;;;;;7.38;2.33;;;;;;;10.57;100.00;102117.94;6250164;28;20735;-79
2022/10/27 07:07:03;;;;;;;3.10;2.08;;;;;;;10.58;100.00;102123.16;6253755;28;20050;-78
2022/10/27 07:10:07;;;;;;;3.38;2.03;;;;;;;10.63;100.00;102123.88;6250652;28;20057;-77
2022/10/27 07:13:08;;;;;;;4.05;2.50;;;;;;;10.68;100.00;102123.75;6248965;28;20056;-76
2022/10/27 07:16:10;;;;;;;4.00;2.22;;;;;;;10.70;100.00;102124.53;6248514;28;20057;-76
2022/10/27 07:19:11;;;;;;;2.63;1.90;;;;;;;10.74;100.00;102130.56;6248172;28;20464;-77
2022/10/27 07:22:14;;;;;;;4.75;2.17;;;;;;;10.77;100.00;102125.22;6249628;28;20168;-77
2022/10/27 07:25:16;;;;;;;4.25;2.08;;;;;;;10.78;100.00;102135.69;6249183;28;20050;-79
2022/10/27 07:28:17;;;;;;;3.38;1.90;;;;;;;10.80;100.00;102139.09;6251165;28;20045;-79
2022/10/27 07:31:19;;;;;;;4.20;2.10;;;;;;;10.84;100.00;102129.34;6249749;28;20141;-79
2022/10/27 07:34:20;;;;;;;4.57;2.83;;;;;;;10.85;100.00;102136.31;6252069;28;20053;-78
2022/10/27 07:37:23;;;;;;;4.28;2.28;;;;;;;10.88;100.00;102141.50;6252881;28;20053;-78
2022/10/27 07:40:24;;;;;;;8.80;3.33;;;;;;;10.91;100.00;102141.41;6249863;28;20057;-78
2022/10/27 07:43:26;;;;;;;5.85;2.50;;;;;;;10.93;100.00;102145.69;6250070;28;20049;-78
2022/10/27 07:46:29;;;;;;;14.10;3.30;;;;;;;10.93;100.00;102144.84;6249991;28;20049;-78
2022/10/27 07:49:30;;;;;;;3.80;2.45;;;;;;;10.96;100.00;102151.78;6249750;28;20056;-78
2022/10/27 07:52:37;;;;;;;7.65;2.42;;;;;;;10.97;100.00;102150.88;6249980;28;20052;-78
2022/10/27 07:55:38;;;;;;;3.35;2.40;;;;;;;10.99;100.00;102159.56;6248943;28;20041;-78
2022/10/27 07:58:39;;;;;;;4.13;2.88;;;;;;;11.00;100.00;102161.28;6249378;28;20045;-78
2022/10/27 08:01:41;;;;;;;2.72;2.25;;;;;;;11.05;100.00;102156.75;6248525;28;20053;-78
2022/10/27 08:04:42;;;;;;;5.20;2.78;;;;;;;11.08;100.00;102162.78;6249339;28;20053;-78
2022/10/27 08:07:45;;;;;;;3.38;2.33;;;;;;;11.11;100.00;102161.78;6248853;28;20052;-79
2022/10/27 08:10:49;;;;;;;3.88;2.47;;;;;;;11.16;100.00;102163.34;6240198;28;20056;-79
2022/10/27 08:13:51;;;;;;;3.75;2.15;;;;;;;11.24;100.00;102164.88;6239086;28;20394;-79
2022/10/27 08:16:52;;;;;;;2.45;2.00;;;;;;;11.31;100.00;102169.91;6245900;28;20178;-78
2022/10/27 08:19:53;;;;;;;7.63;2.95;;;;;;;11.38;100.00;102167.91;6247573;28;20060;-79
2022/10/27 08:22:57;;;;;;;3.35;2.50;;;;;;;11.43;100.00;102158.94;6248657;28;20049;-78
2022/10/27 08:25:58;;;;;;;4.70;2.20;;;;;;;11.49;100.00;102167.53;6248716;28;20700;-79
2022/10/27 08:28:59;;;;;;;3.97;1.92;;;;;;;11.56;100.00;102161.16;6246955;28;20061;-78
2022/10/27 08:32:01;;;;;;;4.45;1.92;;;;;;;11.63;100.00;102163.53;6238834;28;20513;-79
2022/10/27 08:35:03;;;;;;;4.63;1.73;;;;;;;11.71;100.00;102159.75;6226206;28;20394;-79
2022/10/27 08:38:07;;;;;;;4.75;2.40;;;;;;;11.77;100.00;102163.03;6247174;28;20049;-77
2022/10/27 08:41:23;;;;;;;2.80;2.10;;;;;;;11.88;100.00;102160.91;6232693;28;20065;-77
2022/10/27 08:44:27;;;;;;;4.80;2.50;;;;;;;11.97;100.00;102146.53;6235743;28;20049;-78
2022/10/27 08:47:29;;;;;;;3.70;1.98;;;;;;;12.05;100.00;102148.91;6246940;28;20409;-77
2022/10/27 08:50:38;;;;;;;4.20;2.38;;;;;;;12.12;100.00;102147.75;6246813;28;20057;-77
2022/10/27 08:53:44;;;;;;;5.88;2.50;;;;;;;12.22;100.00;102146.50;6247048;28;20050;-78
2022/10/27 08:56:46;;;;;;;3.83;2.30;;;;;;;12.30;100.00;102148.81;6247834;28;20060;-78
2022/10/27 08:59:48;;;;;;;4.03;1.98;;;;;;;12.37;100.00;102145.91;6239406;28;20045;-77
2022/10/27 09:03:13;;;;;;;3.45;2.22;;;;;;;12.49;100.00;102149.84;6241752;28;20051;-78
2022/10/27 09:06:20;;;;;;;3.60;1.90;;;;;;;12.55;100.00;102144.34;6246910;28;20045;-78
2022/10/27 09:09:30;;;;;;;3.33;2.10;;;;;;;12.64;100.00;102145.75;6267188;23;20413;-75
2022/10/27 09:12:56;;;;;;;3.78;2.10;;;;;;;12.77;100.00;102140.84;6246243;28;20042;-74
2022/10/27 09:16:03;;;;;;;4.13;2.30;;;;;;;12.82;100.00;102136.25;6246358;28;20272;-74
2022/10/27 09:19:09;;;;;;;5.90;2.40;;;;;;;12.93;100.00;102139.28;6246038;28;20436;-75
2022/10/27 09:22:16;;;;;;;3.95;2.08;;;;;;;13.02;100.00;102136.28;6246135;28;20493;-73
2022/10/27 09:25:20;;;;;;;3.80;2.58;;;;;;;13.11;100.00;102127.97;6245971;28;20127;-74
2022/10/27 09:28:29;;;;;;;5.50;2.85;;;;;;;13.21;100.00;102121.38;6246445;28;20052;-75
2022/10/27 09:31:35;;;;;;;3.77;2.60;;;;;;;13.32;100.00;102120.13;6245802;28;20049;-75
2022/10/27 09:34:44;;;;;;;4.50;2.38;;;;;;;13.40;100.00;102124.16;6246256;28;20055;-75
2022/10/27 09:37:45;;;;;;;5.72;2.42;;;;;;;13.48;100.00;102117.66;6246138;28;20057;-75
2022/10/27 09:40:48;;;;;;;5.43;2.33;;;;;;;13.59;100.00;102121.56;6245933;28;20524;-73
2022/10/27 09:43:54;;;;;;;6.68;2.42;;;;;;;13.66;100.00;102120.34;6249119;28;20053;-74
2022/10/27 09:46:56;;;;;;;4.07;1.95;;;;;;;13.77;100.00;102121.69;6250988;28;20132;-75
2022/10/27 09:49:59;;;;;;;5.30;2.03;;;;;;;13.82;100.00;102123.19;6242586;28;20054;-74
2022/10/27 09:53:00;;;;;;;7.75;2.17;;;;;;;13.91;100.00;102119.28;6237974;28;20053;-74
2022/10/27 09:56:04;;;;;;;6.45;2.70;;;;;;;13.99;100.00;102124.19;6247678;28;20060;-74
2022/10/27 09:59:06;;;;;;;6.05;2.70;;;;;;;14.06;100.00;102121.19;6250404;28;20049;-74
2022/10/27 10:02:23;;;;;;;3.22;2.20;;;;;;;14.16;100.00;102121.63;6250591;28;20053;-74
2022/10/27 10:05:27;;;;;;;4.95;2.22;;;;;;;14.24;100.00;102130.06;6249935;28;20421;-74
2022/10/27 10:08:32;;;;;;;6.78;2.83;;;;;;;14.34;100.00;102126.06;6250413;28;20055;-74
2022/10/27 10:11:35;;;;;;;4.38;2.53;;;;;;;14.44;100.00;102121.19;6249943;28;20049;-74
2022/10/27 10:14:36;;;;;;;3.13;2.38;;;;;;;14.52;100.00;102121.72;6250239;28;20045;-74
2022/10/27 10:17:40;;;;;;;5.30;2.70;;;;;;;14.62;100.00;102112.41;6250078;28;20053;-74
2022/10/27 10:20:43;;;;;;;8.85;2.30;;;;;;;14.77;100.00;102117.91;6249923;28;20100;-74
2022/10/27 10:23:50;;;;;;;7.05;1.98;;;;;;;14.86;100.00;102115.66;6249841;28;20049;-73
2022/10/27 10:26:55;;;;;;;4.03;2.03;;;;;;;14.98;100.00;102115.03;6250239;28;20107;-74
2022/10/27 10:30:00;;;;;;;7.18;2.20;;;;;;;15.07;100.00;102102.28;6249980;28;20049;-74
2022/10/27 10:33:04;;;;;;;4.35;2.08;;;;;;;15.22;100.00;102112.09;6250133;28;20060;-74
2022/10/27 10:36:19;;;;;;;7.97;2.80;;;;;;;15.32;100.00;102099.25;6249639;28;20171;-74
2022/10/27 10:39:23;;;;;;;6.82;1.80;;;;;;;15.47;100.00;102094.00;6249848;28;20045;-74
2022/10/27 10:42:26;;;;;;;3.25;1.80;;;;;;;15.62;100.00;102089.66;6249522;28;20046;-74
2022/10/27 10:45:29;;;;;;;4.07;2.13;;;;;;;15.78;100.00;102087.09;6249553;28;20049;-74
2022/10/27 10:48:34;;;;;;;4.13;2.15;;;;;;;15.90;100.00;102094.41;6249532;28;20184;-75
2022/10/27 10:51:36;;;;;;;3.75;1.92;;;;;;;15.98;100.00;102088.66;6249257;28;20045;-73
2022/10/27 10:54:43;;;;;;;5.30;2.78;;;;;;;16.09;100.00;102080.16;6247907;28;20056;-74
2022/10/27 10:57:47;;;;;;;4.38;2.13;;;;;;;16.30;100.00;102078.94;6249227;28;20053;-75
2022/10/27 11:00:54;;;;;;;3.58;1.95;;;;;;;16.41;100.00;102081.84;6248979;28;20119;-74
2022/10/27 11:03:56;;;;;;;4.75;1.67;;;;;;;16.47;100.00;102070.88;6248948;28;20048;-72
2022/10/27 11:07:02;;;;;;;3.45;1.58;;;;;;;16.58;100.00;102064.09;6249329;28;20060;-75
2022/10/27 11:10:10;;;;;;;4.07;1.65;;;;;;;16.64;100.00;102059.31;6248555;28;20050;-73
2022/10/27 11:13:18;;;;;;;3.10;1.55;;;;;;;16.77;100.00;102058.63;6248990;28;20057;-74
2022/10/27 11:16:20;;;;;;;3.70;2.15;;;;;;;16.86;100.00;102053.63;6248610;28;20053;-72
2022/10/27 11:19:23;;;;;;;2.13;1.50;;;;;;;16.96;100.00;102046.81;6268708;28;20146;-72
2022/10/27 11:22:26;;;;;;;2.45;1.77;;;;;;;17.08;100.00;102053.22;6273235;28;20072;-72
2022/10/27 11:25:31;;;;;;;2.35;1.70;;;;;;;17.16;100.00;102042.13;6273154;28;20049;-72
2022/10/27 11:28:40;;;;;;;2.78;2.00;;;;;;;17.20;100.00;102035.66;6273406;28;20045;-71
2022/10/27 11:31:50;;;;;;;3.30;1.75;;;;;;;17.27;100.00;102025.53;6273205;28;20053;-72
2022/10/27 11:35:01;;;;;;;5.30;1.60;;;;;;;17.29;100.00;102027.13;6255745;28;20045;-73
2022/10/27 11:38:08;;;;;;;3.67;1.80;;;;;;;17.35;100.00;102024.13;6248560;28;20049;-72
2022/10/27 11:41:16;;;;;;;2.83;1.50;;;;;;;17.37;100.00;102018.72;6234830;28;20046;-73
2022/10/27 11:44:30;;;;;;;4.15;1.58;;;;;;;17.38;100.00;102015.94;6223383;28;20053;-72
2022/10/27 11:47:38;;;;;;;3.95;2.10;;;;;;;17.47;100.00;102018.03;6243740;28;20056;-72
2022/10/27 11:50:46;;;;;;;3.43;1.80;;;;;;;17.62;100.00;102018.91;6233930;28;20052;-72
2022/10/27 11:53:50;;;;;;;4.03;1.65;;;;;;;17.71;100.00;102009.47;6225696;28;20037;-72
2022/10/27 11:57:03;;;;;;;3.92;1.80;;;;;;;17.76;100.00;102015.41;6230185;28;20053;-72
2022/10/27 12:00:15;;;;;;;5.22;1.67;;;;;;;17.82;100.00;102004.38;6225036;28;20057;-72
2022/10/27 12:03:44;;;;;;;2.30;1.60;;;;;;;17.85;100.00;101995.31;6236841;28;20425;-72
2022/10/27 12:06:54;;;;;;;1.58;1.17;;;;;;;17.98;100.00;101999.75;6223278;28;20052;-72
2022/10/27 12:10:07;;;;;;;4.25;1.60;;;;;;;18.06;100.00;101993.94;6222818;28;20656;-72
2022/10/27 12:13:18;;;;;;;6.40;1.70;;;;;;;18.16;100.00;101996.84;6223779;28;20057;-72
2022/10/27 12:16:29;;;;;;;3.85;1.73;;;;;;;18.15;100.00;101993.34;6224535;28;20050;-72
2022/10/27 12:19:35;;;;;;;4.60;1.85;;;;;;;18.21;100.00;101986.75;6268942;28;20056;-72
2022/10/27 12:22:43;;;;;;;6.90;1.70;;;;;;;18.27;100.00;101980.22;6271623;28;20052;-72
2022/10/27 12:25:54;;;;;;;2.90;1.80;;;;;;;18.27;100.00;101980.22;6248096;28;20053;-72
2022/10/27 12:28:57;;;;;;;2.78;1.50;;;;;;;18.22;100.00;101969.88;6246764;28;20053;-73
2022/10/27 12:32:05;;;;;;;1.88;1.30;;;;;;;18.15;100.00;101974.72;6222761;28;20065;-72
2022/10/27 12:35:13;;;;;;;5.03;1.13;;;;;;;18.14;100.00;101966.84;6222248;28;20050;-72
2022/10/27 12:38:21;;;;;;;1.20;1.00;;;;;;;18.17;100.00;101961.34;6222856;28;20045;-72
2022/10/27 12:41:29;;;;;;;2.30;1.00;;;;;;;18.23;100.00;101967.09;6222126;28;20490;-73
2022/10/27 12:44:41;;;;;;;2.67;1.13;;;;;;;18.40;100.00;101950.00;6222376;28;20057;-76
2022/10/27 12:47:53;;;;;;;2.42;1.23;;;;;;;18.58;100.00;101952.41;6244077;28;20056;-72
2022/10/27 12:51:06;;;;;;;1.50;0.90;;;;;;;18.73;100.00;101948.72;6246696;28;20049;-74
2022/10/27 12:54:23;;;;;;;5.25;1.30;;;;;;;18.87;100.00;101943.28;6246359;28;20050;-72
2022/10/27 12:57:38;;;;;;;3.55;1.30;;;;;;;18.93;100.00;101926.88;6246928;28;20053;-72
2022/10/27 13:00:48;;;;;;;1.10;1.00;;;;;;;19.02;100.00;101926.22;6246224;28;20532;-72
2022/10/27 13:04:17;;;;;;;1.55;1.35;;;;;;;19.06;100.00;101924.19;6246261;28;20481;-71
2022/10/27 13:07:35;;;;;;;;;;;;;;;19.00;100.00;101924.63;6247322;28;20053;-73
2022/10/27 13:11:04;;;;;;;1.77;1.00;;;;;;;18.85;100.00;101931.00;6246040;28;19921;-72
2022/10/27 13:14:25;;;;;;;3.28;1.88;;;;;;;18.72;100.00;101921.22;6246079;28;20493;-71
2022/10/27 13:17:38;;;;;;;2.20;1.33;;;;;;;18.72;100.00;101910.56;6252325;28;20045;-72
2022/10/27 13:20:59;;;;;;;3.15;1.23;;;;;;;18.82;100.00;101901.94;6275796;28;20060;-72
2022/10/27 13:24:16;;;;;;;1.10;1.00;;;;;;;18.87;100.00;101913.97;6275989;28;20445;-72
2022/10/27 13:27:23;;;;;;;1.25;1.00;;;;;;;18.93;100.00;101912.69;6276224;28;20048;-71
2022/10/27 13:30:29;;;;;;;1.13;0.85;;;;;;;18.96;100.00;101908.00;6275817;28;20516;-73
2022/10/27 13:33:34;;;;;;;2.15;1.17;;;;;;;18.87;100.00;101906.00;6263298;28;20057;-72
2022/10/27 13:36:38;;;;;;;2.35;0.85;;;;;;;18.83;100.00;101901.84;6251118;28;20057;-73
2022/10/27 13:39:45;;;;;;;1.92;0.75;;;;;;;18.83;100.00;101904.50;6251027;28;20053;-72
2022/10/27 13:42:48;;;;;;;2.05;0.90;;;;;;;18.88;100.00;101890.84;6250816;28;20199;-73
2022/10/27 13:45:52;;;;;;;1.70;0.90;;;;;;;18.82;100.00;101891.28;6250639;28;20056;-73
2022/10/27 13:48:53;;;;;;;4.22;1.40;;;;;;;18.69;100.00;101885.97;6251125;28;20049;-72
2022/10/27 13:55:34;;;;;;;0.85;0.80;;;;;;;18.44;100.00;101879.66;6317710;27;20474;-72
2022/10/27 13:58:55;;;;;;;3.85;0.93;;;;;;;18.35;100.00;101880.28;6305111;28;20489;-73
2022/10/27 14:02:02;;;;;;;2.05;0.70;;;;;;;18.30;100.00;101861.06;6279200;28;20056;-73
2022/10/27 14:05:25;;;;;;;3.38;1.05;;;;;;;18.25;100.00;101874.69;6267588;28;20048;-72
2022/10/27 14:08:29;;;;;;;1.52;0.93;;;;;;;18.18;100.00;101870.75;6265614;28;20060;-72
2022/10/27 14:11:32;;;;;;;1.83;1.02;;;;;;;18.17;100.00;101882.38;6243054;28;20053;-73
2022/10/27 14:14:36;;;;;;;3.55;0.90;;;;;;;18.17;100.00;101878.84;6242802;28;20049;-72
2022/10/27 14:17:41;;;;;;;1.38;0.82;;;;;;;18.15;100.00;101880.75;6243012;28;20045;-73